Time;durP1;ratioP1;P1;durP2;ratioP2;P2;SDS_P1;SDS_P2;PMS_P1;PMS_P2;Temp;Humidity;BMP_temperature;BMP_pressure;BME280_temperature;BME280_humidity;BME280_pressure;Samples;Min_cycle;Max_cycle;Signal;HPM_P1;HPM_P2
2022/06/01 00:00:38;;;;;;;10.23;6.90;;;;;;;;;;5063463;28;20478;-60
2022/06/01 00:03:05;;;;;;;9.30;6.95;;;;;;;;;;5062200;28;20055;-60
2022/06/01 00:05:31;;;;;;;9.38;6.13;;;;;;;;;;5063519;28;20068;-60
2022/06/01 00:07:57;;;;;;;11.82;6.65;;;;;;;;;;5064134;28;20504;-60
2022/06/01 00:10:24;;;;;;;13.50;7.28;;;;;;;;;;5063239;28;20410;-60
2022/06/01 00:12:50;;;;;;;11.18;6.93;;;;;;;;;;5064224;28;20551;-60
2022/06/01 00:15:17;;;;;;;9.73;6.95;;;;;;;;;;5064643;28;20047;-60
2022/06/01 00:17:43;;;;;;;8.30;6.47;;;;;;;;;;5061693;28;20473;-60
2022/06/01 00:20:10;;;;;;;14.30;7.53;;;;;;;;;;5063967;28;20036;-60
2022/06/01 00:22:36;;;;;;;9.60;6.78;;;;;;;;;;5063841;28;20032;-60
2022/06/01 00:25:04;;;;;;;10.30;8.40;;;;;;;;;;5062837;28;20045;-60
2022/06/01 00:27:31;;;;;;;10.65;7.80;;;;;;;;;;5063610;28;20037;-60
2022/06/01 00:29:57;;;;;;;11.82;8.13;;;;;;;;;;5063283;28;20040;-60
2022/06/01 00:32:24;;;;;;;16.20;8.32;;;;;;;;;;5062991;28;20041;-60
2022/06/01 00:34:50;;;;;;;17.50;9.52;;;;;;;;;;5063810;28;20451;-60
2022/06/01 00:37:17;;;;;;;12.30;8.52;;;;;;;;;;5063503;28;20041;-60
2022/06/01 00:39:44;;;;;;;13.77;9.25;;;;;;;;;;5063956;28;20493;-60
2022/06/01 00:42:12;;;;;;;14.02;9.60;;;;;;;;;;5063955;28;20040;-60
2022/06/01 00:44:38;;;;;;;10.32;8.02;;;;;;;;;;5059719;28;20044;-59
2022/06/01 00:47:04;;;;;;;12.43;8.40;;;;;;;;;;5062835;28;20398;-59
2022/06/01 00:49:31;;;;;;;13.00;9.02;;;;;;;;;;5065336;28;20040;-60
2022/06/01 00:51:57;;;;;;;13.77;8.80;;;;;;;;;;5067104;28;20071;-60
2022/06/01 00:54:26;;;;;;;14.20;9.30;;;;;;;;;;5066477;28;20070;-60
2022/06/01 00:56:54;;;;;;;18.85;8.57;;;;;;;;;;5066967;28;20033;-60
2022/06/01 00:59:22;;;;;;;15.82;9.18;;;;;;;;;;5066011;28;20052;-60
2022/06/01 01:01:49;;;;;;;13.35;9.38;;;;;;;;;;5066298;28;20044;-60
2022/06/01 01:04:15;;;;;;;13.80;9.95;;;;;;;;;;5066502;28;20051;-60
2022/06/01 01:06:43;;;;;;;17.92;9.40;;;;;;;;;;5066784;28;20049;-60
2022/06/01 01:09:10;;;;;;;12.15;9.25;;;;;;;;;;5064417;28;20725;-60
2022/06/01 01:11:39;;;;;;;14.43;9.73;;;;;;;;;;5064796;28;20082;-60
2022/06/01 01:14:06;;;;;;;14.30;8.80;;;;;;;;;;5066570;28;20053;-60
2022/06/01 01:16:32;;;;;;;12.50;9.25;;;;;;;;;;5065767;28;20178;-60
2022/06/01 01:18:59;;;;;;;13.40;9.20;;;;;;;;;;5066313;28;20044;-60
2022/06/01 01:21:32;;;;;;;12.60;9.82;;;;;;;;;;5066159;28;20044;-60
2022/06/01 01:24:04;;;;;;;15.07;9.35;;;;;;;;;;5066509;28;20040;-60
2022/06/01 01:26:31;;;;;;;15.77;10.10;;;;;;;;;;5066153;28;20541;-59
2022/06/01 01:28:57;;;;;;;13.93;9.57;;;;;;;;;;5065970;28;20043;-60
2022/06/01 01:31:24;;;;;;;14.55;9.73;;;;;;;;;;5065307;28;20116;-59
2022/06/01 01:33:52;;;;;;;13.73;9.55;;;;;;;;;;5066393;28;20459;-60
2022/06/01 01:36:21;;;;;;;21.85;10.55;;;;;;;;;;5065110;28;20040;-60
2022/06/01 01:38:51;;;;;;;14.15;10.73;;;;;;;;;;5066446;28;20120;-59
2022/06/01 01:41:24;;;;;;;15.63;10.57;;;;;;;;;;5065935;28;20545;-59
2022/06/01 01:43:50;;;;;;;15.52;10.95;;;;;;;;;;5062943;28;20029;-60
2022/06/01 01:46:17;;;;;;;17.25;10.73;;;;;;;;;;5065236;28;20052;-59
2022/06/01 01:48:43;;;;;;;14.30;10.73;;;;;;;;;;5066589;28;20047;-60
2022/06/01 01:51:09;;;;;;;13.85;9.95;;;;;;;;;;5066086;28;20103;-59
2022/06/01 01:53:36;;;;;;;14.40;10.57;;;;;;;;;;5065793;28;20067;-60
2022/06/01 01:56:08;;;;;;;15.63;10.70;;;;;;;;;;5066240;28;20033;-60
2022/06/01 01:58:47;;;;;;;15.23;10.15;;;;;;;;;;5076827;28;20048;-60
2022/06/01 02:01:19;;;;;;;15.70;10.48;;;;;;;;;;5065314;28;20486;-59
2022/06/01 02:03:49;;;;;;;17.08;11.63;;;;;;;;;;5065770;28;20406;-59
2022/06/01 02:06:15;;;;;;;15.23;10.68;;;;;;;;;;5066036;28;20120;-60
2022/06/01 02:08:46;;;;;;;15.63;10.90;;;;;;;;;;5065096;28;20058;-60
2022/06/01 02:13:59;;;;;;;16.02;10.88;;;;;;;;;;5065685;28;20128;-60
2022/06/01 02:16:26;;;;;;;19.13;11.90;;;;;;;;;;5064505;28;20045;-60
2022/06/01 02:18:55;;;;;;;18.73;11.70;;;;;;;;;;5061232;28;20491;-60
2022/06/01 02:21:25;;;;;;;15.95;11.95;;;;;;;;;;5065139;28;20094;-60
2022/06/01 02:23:52;;;;;;;17.30;11.68;;;;;;;;;;5065234;28;20127;-60
2022/06/01 02:26:19;;;;;;;24.25;13.25;;;;;;;;;;5065015;28;20757;-59
2022/06/01 02:28:46;;;;;;;18.42;12.80;;;;;;;;;;5065037;28;20032;-60
2022/06/01 02:31:12;;;;;;;19.35;12.50;;;;;;;;;;5065124;28;20041;-59
2022/06/01 02:33:39;;;;;;;19.50;13.93;;;;;;;;;;5065200;28;20040;-60
2022/06/01 02:36:07;;;;;;;17.17;13.18;;;;;;;;;;5065339;28;20131;-60
2022/06/01 02:38:36;;;;;;;18.73;12.95;;;;;;;;;;5064575;28;20047;-60
2022/06/01 02:41:02;;;;;;;18.33;13.23;;;;;;;;;;5064920;28;20094;-60
2022/06/01 02:43:28;;;;;;;20.23;13.98;;;;;;;;;;5065008;28;20036;-60
2022/06/01 02:45:56;;;;;;;18.55;13.50;;;;;;;;;;5063782;28;20055;-60
2022/06/01 02:48:23;;;;;;;21.37;14.63;;;;;;;;;;5064696;28;20771;-60
2022/06/01 02:50:49;;;;;;;19.75;13.75;;;;;;;;;;5064473;28;20056;-60
2022/06/01 02:53:15;;;;;;;20.95;14.43;;;;;;;;;;5065069;28;20044;-60
2022/06/01 02:55:41;;;;;;;18.92;13.55;;;;;;;;;;5064423;28;20044;-60
2022/06/01 02:58:07;;;;;;;20.90;13.82;;;;;;;;;;5064442;28;20044;-60
2022/06/01 03:00:37;;;;;;;20.27;14.70;;;;;;;;;;5063099;28;20051;-59
2022/06/01 03:03:04;;;;;;;20.65;14.55;;;;;;;;;;5063461;28;20063;-60
2022/06/01 03:05:32;;;;;;;20.23;14.77;;;;;;;;;;5064134;28;21312;-60
2022/06/01 03:07:58;;;;;;;21.90;15.77;;;;;;;;;;5064715;28;20049;-60
2022/06/01 03:10:25;;;;;;;18.88;14.23;;;;;;;;;;5064406;28;20037;-60
2022/06/01 03:12:52;;;;;;;22.38;14.57;;;;;;;;;;5063884;28;20561;-60
2022/06/01 03:15:19;;;;;;;18.50;14.80;;;;;;;;;;5063937;28;20040;-60
2022/06/01 03:17:45;;;;;;;19.77;14.98;;;;;;;;;;5064246;28;20032;-60
2022/06/01 03:20:13;;;;;;;22.60;15.05;;;;;;;;;;5064256;28;20052;-60
2022/06/01 03:22:40;;;;;;;20.95;15.30;;;;;;;;;;5064186;28;20048;-60
2022/06/01 03:25:11;;;;;;;20.23;15.32;;;;;;;;;;5064408;28;20445;-60
2022/06/01 03:27:38;;;;;;;22.30;15.68;;;;;;;;;;5061387;28;20048;-60
2022/06/01 03:30:06;;;;;;;20.48;15.23;;;;;;;;;;5063682;28;20154;-60
2022/06/01 03:32:32;;;;;;;20.58;15.48;;;;;;;;;;5062952;28;20044;-60
2022/06/01 03:34:58;;;;;;;21.50;15.50;;;;;;;;;;5064263;28;20537;-60
2022/06/01 03:37:25;;;;;;;21.20;15.02;;;;;;;;;;5063843;28;20072;-60
2022/06/01 03:39:51;;;;;;;18.20;14.27;;;;;;;;;;5064317;28;20032;-60
2022/06/01 03:42:17;;;;;;;22.55;16.05;;;;;;;;;;5064245;28;20040;-59
2022/06/01 03:47:28;;;;;;;19.20;14.77;;;;;;;;;;5061351;28;20086;-60
2022/06/01 03:49:54;;;;;;;21.33;15.77;;;;;;;;;;5062247;28;20124;-59
2022/06/01 03:52:21;;;;;;;22.00;15.82;;;;;;;;;;5063888;28;20044;-59
2022/06/01 03:54:47;;;;;;;22.40;16.33;;;;;;;;;;5063861;28;20057;-60
2022/06/01 03:57:13;;;;;;;24.67;16.92;;;;;;;;;;5064277;28;20029;-60
2022/06/01 03:59:39;;;;;;;20.83;15.68;;;;;;;;;;5063636;28;20133;-60
2022/06/01 04:02:06;;;;;;;20.90;15.68;;;;;;;;;;5063058;28;20123;-60
2022/06/01 04:04:32;;;;;;;27.58;16.15;;;;;;;;;;5063313;28;20510;-60
2022/06/01 04:06:58;;;;;;;22.30;15.85;;;;;;;;;;5063647;28;20058;-60
2022/06/01 04:09:24;;;;;;;22.83;16.23;;;;;;;;;;5063823;28;20442;-60
2022/06/01 04:11:52;;;;;;;24.13;17.02;;;;;;;;;;5062403;28;20040;-59
2022/06/01 04:14:20;;;;;;;23.90;16.60;;;;;;;;;;5063874;28;20127;-60
2022/06/01 04:16:47;;;;;;;23.17;15.70;;;;;;;;;;5063163;28;20302;-60
2022/06/01 04:19:13;;;;;;;23.23;16.88;;;;;;;;;;5064259;28;20811;-60
2022/06/01 04:21:40;;;;;;;21.38;15.30;;;;;;;;;;5063086;28;20055;-60
2022/06/01 04:24:10;;;;;;;21.40;15.98;;;;;;;;;;5065099;28;20055;-60
2022/06/01 04:26:36;;;;;;;22.52;15.95;;;;;;;;;;5067659;28;20428;-59
2022/06/01 04:29:02;;;;;;;23.58;16.25;;;;;;;;;;5067009;28;20405;-59
2022/06/01 04:31:28;;;;;;;25.23;16.08;;;;;;;;;;5066444;28;20133;-59
2022/06/01 04:33:54;;;;;;;25.52;17.15;;;;;;;;;;5067357;28;20037;-60
2022/06/01 04:36:20;;;;;;;24.00;16.65;;;;;;;;;;5063788;28;20115;-60
2022/06/01 04:38:47;;;;;;;22.88;16.63;;;;;;;;;;5066961;28;20051;-58
2022/06/01 04:41:13;;;;;;;24.27;16.05;;;;;;;;;;5067290;28;20037;-60
2022/06/01 04:43:39;;;;;;;23.50;16.52;;;;;;;;;;5067180;28;20123;-60
2022/06/01 04:46:05;;;;;;;20.65;16.02;;;;;;;;;;5066134;28;20036;-60
2022/06/01 04:48:31;;;;;;;20.60;15.85;;;;;;;;;;5063727;28;20040;-61
2022/06/01 04:50:58;;;;;;;24.38;16.67;;;;;;;;;;5064458;28;20037;-61
2022/06/01 04:53:25;;;;;;;25.00;17.40;;;;;;;;;;5067252;28;20514;-61
2022/06/01 04:55:51;;;;;;;23.20;16.55;;;;;;;;;;5066473;28;20539;-60
2022/06/01 04:58:17;;;;;;;21.98;17.13;;;;;;;;;;5066371;28;20066;-61
2022/06/01 05:00:44;;;;;;;21.70;16.17;;;;;;;;;;5063903;28;20401;-61
2022/06/01 05:03:11;;;;;;;22.63;16.58;;;;;;;;;;5066948;28;20033;-57
2022/06/01 05:05:39;;;;;;;23.77;17.42;;;;;;;;;;5066561;28;20095;-58
2022/06/01 05:08:06;;;;;;;26.42;16.40;;;;;;;;;;5066612;28;20525;-58
2022/06/01 05:10:32;;;;;;;21.23;15.40;;;;;;;;;;5066709;28;20056;-58
2022/06/01 05:12:58;;;;;;;22.48;16.20;;;;;;;;;;5064541;28;20052;-58
2022/06/01 05:15:25;;;;;;;25.50;16.48;;;;;;;;;;5062031;28;20106;-58
2022/06/01 05:17:51;;;;;;;25.33;15.25;;;;;;;;;;5064952;28;20396;-58
2022/06/01 05:20:18;;;;;;;30.35;15.35;;;;;;;;;;5063144;28;20044;-59
2022/06/01 05:22:45;;;;;;;20.63;14.82;;;;;;;;;;5065160;28;20037;-59
2022/06/01 05:25:11;;;;;;;18.25;12.93;;;;;;;;;;5065147;28;20611;-59
2022/06/01 05:27:38;;;;;;;17.80;12.68;;;;;;;;;;5064324;28;20036;-59
2022/06/01 05:30:05;;;;;;;17.15;12.15;;;;;;;;;;5063954;28;20061;-59
2022/06/01 05:32:31;;;;;;;18.70;11.77;;;;;;;;;;5064381;28;20044;-59
2022/06/01 05:34:58;;;;;;;17.40;11.70;;;;;;;;;;5059767;28;20066;-59
2022/06/01 05:37:24;;;;;;;16.35;12.40;;;;;;;;;;5061615;28;20177;-59
2022/06/01 05:39:51;;;;;;;19.50;12.90;;;;;;;;;;5060306;28;20052;-60
2022/06/01 05:42:18;;;;;;;16.92;12.25;;;;;;;;;;5064077;28;20090;-59
2022/06/01 05:44:45;;;;;;;17.92;12.70;;;;;;;;;;5063543;28;20036;-60
2022/06/01 05:47:11;;;;;;;21.02;14.23;;;;;;;;;;5062936;28;20047;-59
2022/06/01 05:49:37;;;;;;;21.75;14.70;;;;;;;;;;5065820;28;20112;-60
2022/06/01 05:52:03;;;;;;;23.38;15.02;;;;;;;;;;5065605;28;20409;-59
2022/06/01 05:54:29;;;;;;;23.48;15.75;;;;;;;;;;5065842;28;20033;-60
2022/06/01 05:56:55;;;;;;;32.08;16.77;;;;;;;;;;5065231;28;20095;-60
2022/06/01 05:59:21;;;;;;;28.55;17.08;;;;;;;;;;5065323;28;20049;-60
2022/06/01 06:01:48;;;;;;;25.27;17.40;;;;;;;;;;5064546;28;20063;-60
2022/06/01 06:04:14;;;;;;;28.23;17.10;;;;;;;;;;5064869;28;20049;-59
2022/06/01 06:06:40;;;;;;;35.72;17.45;;;;;;;;;;5064731;28;20060;-59
2022/06/01 06:09:08;;;;;;;27.67;18.48;;;;;;;;;;5064769;28;20040;-59
2022/06/01 06:11:36;;;;;;;24.77;17.90;;;;;;;;;;5065122;28;20045;-59
2022/06/01 06:14:02;;;;;;;27.30;18.93;;;;;;;;;;5065525;28;20064;-59
2022/06/01 06:16:30;;;;;;;24.85;18.15;;;;;;;;;;5064761;28;20131;-57
2022/06/01 06:18:56;;;;;;;26.15;18.50;;;;;;;;;;5064879;28;20036;-56
2022/06/01 06:21:23;;;;;;;26.60;17.95;;;;;;;;;;5065017;28;20087;-57
2022/06/01 06:23:50;;;;;;;24.92;17.77;;;;;;;;;;5064742;28;20040;-57
2022/06/01 06:26:16;;;;;;;27.52;17.42;;;;;;;;;;5065772;28;20033;-57
2022/06/01 06:28:44;;;;;;;24.38;17.13;;;;;;;;;;5065062;28;20132;-57
2022/06/01 06:31:10;;;;;;;26.48;18.05;;;;;;;;;;5064693;28;20082;-57
2022/06/01 06:33:36;;;;;;;24.23;17.65;;;;;;;;;;5064237;28;20147;-57
2022/06/01 06:36:05;;;;;;;23.70;16.80;;;;;;;;;;5063760;28;20539;-57
2022/06/01 06:38:32;;;;;;;25.83;17.17;;;;;;;;;;5065103;28;20375;-57
2022/06/01 06:41:01;;;;;;;26.13;18.23;;;;;;;;;;5064514;28;20040;-57
2022/06/01 06:43:28;;;;;;;24.73;16.83;;;;;;;;;;5064759;28;20082;-56
2022/06/01 06:46:00;;;;;;;26.50;17.38;;;;;;;;;;5063317;28;20186;-56
2022/06/01 06:48:26;;;;;;;31.00;16.58;;;;;;;;;;5064808;28;20102;-56
2022/06/01 06:50:53;;;;;;;21.85;14.20;;;;;;;;;;5064784;28;20040;-57
2022/06/01 06:53:19;;;;;;;20.33;14.98;;;;;;;;;;5064541;28;20048;-57
2022/06/01 06:55:46;;;;;;;17.73;12.55;;;;;;;;;;5059496;28;20044;-57
2022/06/01 06:58:12;;;;;;;19.17;13.18;;;;;;;;;;5064729;28;20147;-57
2022/06/01 07:00:38;;;;;;;20.10;13.40;;;;;;;;;;5063606;28;20044;-57
2022/06/01 07:03:05;;;;;;;17.92;12.30;;;;;;;;;;5064800;28;20028;-57
2022/06/01 07:08:16;;;;;;;20.98;14.35;;;;;;;;;;5064554;28;20048;-57
2022/06/01 07:10:43;;;;;;;20.20;13.48;;;;;;;;;;5064659;28;20071;-57
2022/06/01 07:13:09;;;;;;;20.25;13.43;;;;;;;;;;5064251;28;20076;-57
2022/06/01 07:15:35;;;;;;;16.83;12.65;;;;;;;;;;5063178;28;20391;-57
2022/06/01 07:18:03;;;;;;;18.98;11.85;;;;;;;;;;5063459;28;20032;-57
2022/06/01 07:20:29;;;;;;;16.60;10.88;;;;;;;;;;5064009;28;20048;-56
2022/06/01 07:22:56;;;;;;;14.90;9.93;;;;;;;;;;5064193;28;20051;-57
2022/06/01 07:25:22;;;;;;;13.32;8.85;;;;;;;;;;5062437;28;20044;-57
2022/06/01 07:27:49;;;;;;;13.77;9.38;;;;;;;;;;5061850;28;20211;-57
2022/06/01 07:30:16;;;;;;;17.23;10.55;;;;;;;;;;5063430;28;20037;-57
2022/06/01 07:32:48;;;;;;;20.67;10.60;;;;;;;;;;5064814;28;20048;-56
2022/06/01 07:35:15;;;;;;;20.13;11.15;;;;;;;;;;5064267;28;20409;-57
2022/06/01 07:43:12;;;;;;;10.60;7.38;;;;;;;;;;5061556;28;20543;-57
2022/06/01 07:45:39;;;;;;;10.30;6.78;;;;;;;;;;5062631;28;20482;-57
2022/06/01 07:48:07;;;;;;;10.30;7.50;;;;;;;;;;5064055;28;20448;-57
2022/06/01 07:50:34;;;;;;;8.50;6.03;;;;;;;;;;5063702;28;20098;-57
2022/06/01 07:53:01;;;;;;;15.27;5.70;;;;;;;;;;5063229;28;20482;-57
2022/06/01 07:55:27;;;;;;;6.32;4.70;;;;;;;;;;5076071;28;20032;-57
2022/06/01 07:57:53;;;;;;;6.57;3.75;;;;;;;;;;5065379;28;20040;-57
2022/06/01 08:00:20;;;;;;;6.35;3.22;;;;;;;;;;5062652;28;20048;-56
2022/06/01 08:02:46;;;;;;;6.07;3.65;;;;;;;;;;5067908;28;20036;-57
2022/06/01 08:05:13;;;;;;;5.10;3.60;;;;;;;;;;5068277;28;20501;-57
2022/06/01 08:07:40;;;;;;;3.05;2.13;;;;;;;;;;5067458;28;20510;-57
2022/06/01 08:10:07;;;;;;;4.93;3.10;;;;;;;;;;5067179;28;20490;-57
2022/06/01 08:15:19;;;;;;;41.80;6.00;;;;;;;;;;5066463;28;20048;-59
2022/06/01 08:17:46;;;;;;;9.30;4.28;;;;;;;;;;5067921;28;20044;-57
2022/06/01 08:20:13;;;;;;;8.27;4.47;;;;;;;;;;5067803;28;20141;-57
2022/06/01 08:22:39;;;;;;;7.38;4.47;;;;;;;;;;5067265;28;20053;-58
2022/06/01 08:25:06;;;;;;;8.95;4.32;;;;;;;;;;5067303;28;20036;-58
2022/06/01 08:27:32;;;;;;;12.25;4.20;;;;;;;;;;5067133;28;20051;-57
2022/06/01 08:29:58;;;;;;;6.50;5.00;;;;;;;;;;5066496;28;20037;-57
2022/06/01 08:32:25;;;;;;;8.70;5.40;;;;;;;;;;5066792;28;20494;-58
2022/06/01 08:34:51;;;;;;;21.50;6.18;;;;;;;;;;5067515;28;20121;-57
2022/06/01 08:37:17;;;;;;;12.70;5.82;;;;;;;;;;5067050;28;20067;-57
2022/06/01 08:39:44;;;;;;;7.88;5.68;;;;;;;;;;5068180;28;20044;-57
2022/06/01 08:42:12;;;;;;;8.30;6.03;;;;;;;;;;5066677;28;20323;-57
2022/06/01 08:44:40;;;;;;;7.18;5.75;;;;;;;;;;5065654;28;20069;-57
2022/06/01 08:47:16;;;;;;;8.65;5.78;;;;;;;;;;5066622;28;20051;-57
2022/06/01 08:49:43;;;;;;;6.88;5.65;;;;;;;;;;5067167;28;20379;-57
2022/06/01 08:52:09;;;;;;;9.45;6.80;;;;;;;;;;5067139;28;20028;-57
2022/06/01 08:54:36;;;;;;;10.60;7.22;;;;;;;;;;5066810;28;20048;-57
2022/06/01 08:57:11;;;;;;;13.15;8.23;;;;;;;;;;5066554;28;20041;-58
2022/06/01 08:59:41;;;;;;;11.70;8.13;;;;;;;;;;5065974;28;20052;-57
2022/06/01 09:02:34;;;;;;;15.77;8.02;;;;;;;;;;5066445;28;20425;-57
2022/06/01 09:05:14;;;;;;;11.77;9.13;;;;;;;;;;5082030;28;20087;-57
2022/06/01 09:07:48;;;;;;;12.07;8.93;;;;;;;;;;5081399;28;20136;-57
2022/06/01 09:10:15;;;;;;;13.02;9.45;;;;;;;;;;5064038;28;20492;-57
2022/06/01 09:12:41;;;;;;;13.50;8.80;;;;;;;;;;5066571;28;20528;-57
2022/06/01 09:15:17;;;;;;;11.88;9.20;;;;;;;;;;5065778;28;20040;-57
2022/06/01 09:17:43;;;;;;;14.23;9.57;;;;;;;;;;5066523;28;20153;-57
2022/06/01 09:23:00;;;;;;;12.05;8.73;;;;;;;;;;5066904;28;20492;-57
2022/06/01 09:25:28;;;;;;;12.93;8.60;;;;;;;;;;5066001;28;20575;-58
2022/06/01 09:27:59;;;;;;;16.35;9.73;;;;;;;;;;5065907;28;20040;-58
2022/06/01 09:30:27;;;;;;;12.65;8.85;;;;;;;;;;5065175;28;20136;-57
2022/06/01 09:33:01;;;;;;;13.32;8.82;;;;;;;;;;5066096;28;20058;-57
2022/06/01 09:35:29;;;;;;;12.00;8.18;;;;;;;;;;5065722;28;20375;-58
2022/06/01 09:37:56;;;;;;;9.73;7.35;;;;;;;;;;5066348;28;20102;-58
2022/06/01 09:40:26;;;;;;;11.18;7.30;;;;;;;;;;5065827;28;20044;-58
2022/06/01 09:42:53;;;;;;;7.72;5.80;;;;;;;;;;5065477;28;20072;-56
2022/06/01 09:45:24;;;;;;;13.40;7.20;;;;;;;;;;5064785;28;20045;-58
2022/06/01 09:47:50;;;;;;;12.48;7.43;;;;;;;;;;5065863;28;20046;-58
2022/06/01 09:50:24;;;;;;;8.32;6.82;;;;;;;;;;5066231;28;20111;-57
2022/06/01 09:52:53;;;;;;;7.80;5.43;;;;;;;;;;5065491;28;20070;-58
2022/06/01 09:55:22;;;;;;;7.60;5.65;;;;;;;;;;5065187;28;20064;-57
2022/06/01 09:58:00;;;;;;;6.82;5.35;;;;;;;;;;5065296;28;20040;-57
2022/06/01 10:06:06;;;;;;;9.40;6.32;;;;;;;;;;5056539;28;20053;-57
2022/06/01 10:08:35;;;;;;;8.05;6.40;;;;;;;;;;5064978;28;20040;-57
2022/06/01 10:11:04;;;;;;;8.45;6.28;;;;;;;;;;5064200;28;20398;-57
2022/06/01 10:13:35;;;;;;;7.78;6.25;;;;;;;;;;5065567;28;20100;-58
2022/06/01 10:16:07;;;;;;;7.80;5.65;;;;;;;;;;5064744;28;20482;-57
2022/06/01 10:18:34;;;;;;;8.85;6.50;;;;;;;;;;5065091;28;20057;-58
2022/06/01 10:21:04;;;;;;;7.20;5.82;;;;;;;;;;5065183;28;20076;-58
2022/06/01 10:23:36;;;;;;;14.88;6.47;;;;;;;;;;5063712;28;20040;-57
2022/06/01 10:26:09;;;;;;;7.43;5.63;;;;;;;;;;5064791;28;20119;-58
2022/06/01 10:28:40;;;;;;;9.95;6.05;;;;;;;;;;5064277;28;20052;-57
2022/06/01 10:31:08;;;;;;;7.40;5.30;;;;;;;;;;5063858;28;20032;-57
2022/06/01 10:33:37;;;;;;;8.07;5.63;;;;;;;;;;5062152;28;20048;-58
2022/06/01 10:36:07;;;;;;;7.82;5.40;;;;;;;;;;5065030;28;22002;-60
2022/06/01 10:38:38;;;;;;;7.03;5.13;;;;;;;;;;5061806;28;20068;-61
2022/06/01 10:41:15;;;;;;;9.05;5.88;;;;;;;;;;5061299;28;20045;-62
2022/06/01 10:43:48;;;;;;;9.13;5.55;;;;;;;;;;5064454;28;20048;-64
2022/06/01 10:46:24;;;;;;;5.95;2.90;;;;;;;;;;5062458;28;20037;-62
2022/06/01 10:48:56;;;;;;;13.10;2.67;;;;;;;;;;5061954;28;20075;-63
2022/06/01 10:51:26;;;;;;;8.10;2.60;;;;;;;;;;5061038;28;20390;-62
2022/06/01 10:53:58;;;;;;;3.55;1.77;;;;;;;;;;5060868;28;20044;-63
2022/06/01 10:56:24;;;;;;;2.85;1.50;;;;;;;;;;5058481;28;20311;-63
2022/06/01 10:58:54;;;;;;;4.55;1.27;;;;;;;;;;5059365;28;20056;-63
2022/06/01 11:01:35;;;;;;;2.17;1.50;;;;;;;;;;5060649;28;20047;-62
2022/06/01 11:04:01;;;;;;;2.42;1.10;;;;;;;;;;5061756;28;20109;-62
2022/06/01 11:06:46;;;;;;;9.93;1.60;;;;;;;;;;5060262;28;20052;-62
2022/06/01 11:09:13;;;;;;;2.25;1.33;;;;;;;;;;5062724;28;20075;-62
2022/06/01 11:11:47;;;;;;;3.10;1.10;;;;;;;;;;5059994;28;20036;-62
2022/06/01 11:14:20;;;;;;;3.60;1.63;;;;;;;;;;5061677;28;20051;-62
2022/06/01 11:16:59;;;;;;;6.10;1.23;;;;;;;;;;5060108;28;20080;-62
2022/06/01 11:19:31;;;;;;;2.28;1.20;;;;;;;;;;5059609;28;20483;-62
2022/06/01 11:22:05;;;;;;;1.17;0.80;;;;;;;;;;5060783;28;20048;-62
2022/06/01 11:24:42;;;;;;;5.45;0.90;;;;;;;;;;5060707;28;20040;-62
2022/06/01 11:27:27;;;;;;;1.10;0.70;;;;;;;;;;5061439;28;20453;-63
2022/06/01 11:29:55;;;;;;;3.83;0.82;;;;;;;;;;5059132;28;20076;-62
2022/06/01 11:32:25;;;;;;;1.88;0.98;;;;;;;;;;5059910;28;20517;-62
2022/06/01 11:34:51;;;;;;;2.17;0.85;;;;;;;;;;5059750;28;20047;-62
2022/06/01 11:37:23;;;;;;;2.33;0.90;;;;;;;;;;5061522;28;20829;-62
2022/06/01 11:39:50;;;;;;;1.02;0.50;;;;;;;;;;5060848;28;20080;-62
2022/06/01 11:42:20;;;;;;;2.38;0.82;;;;;;;;;;5060838;28;20036;-62
2022/06/01 11:44:54;;;;;;;6.80;1.00;;;;;;;;;;5061599;28;20490;-62
2022/06/01 11:47:22;;;;;;;2.65;1.60;;;;;;;;;;5060809;28;20037;-62
2022/06/01 11:50:13;;;;;;;2.90;1.60;;;;;;;;;;5061811;28;20036;-62
2022/06/01 11:52:47;;;;;;;3.97;1.23;;;;;;;;;;5057665;28;20056;-62
2022/06/01 11:55:13;;;;;;;3.00;1.40;;;;;;;;;;5057740;28;20105;-62
2022/06/01 11:57:40;;;;;;;3.15;1.30;;;;;;;;;;5062577;28;20087;-62
2022/06/01 12:00:15;;;;;;;4.07;1.20;;;;;;;;;;5062792;28;20049;-63
2022/06/01 12:02:41;;;;;;;2.58;1.40;;;;;;;;;;5059650;28;20127;-62
2022/06/01 12:05:12;;;;;;;2.65;1.42;;;;;;;;;;5060176;28;20056;-62
2022/06/01 12:07:41;;;;;;;2.03;1.45;;;;;;;;;;5061238;28;20086;-62
2022/06/01 12:10:20;;;;;;;3.10;1.63;;;;;;;;;;5063004;28;20301;-62
2022/06/01 12:12:57;;;;;;;3.38;1.77;;;;;;;;;;5060229;28;20099;-62
2022/06/01 12:15:29;;;;;;;3.88;1.80;;;;;;;;;;5050258;28;20135;-62
2022/06/01 12:18:00;;;;;;;2.80;1.70;;;;;;;;;;5057715;28;20131;-62
2022/06/01 12:20:32;;;;;;;3.28;1.63;;;;;;;;;;5052247;28;20060;-62
2022/06/01 12:28:47;;;;;;;3.60;1.50;;;;;;;;;;5058689;28;20087;-63
2022/06/01 12:31:16;;;;;;;3.38;1.80;;;;;;;;;;5060253;28;20057;-62
2022/06/01 12:33:42;;;;;;;;;;;;;;;;;;5057061;28;20035;-62
2022/06/01 12:36:11;;;;;;;2.28;1.35;;;;;;;;;;5060774;28;19921;-62
2022/06/01 12:38:40;;;;;;;4.25;1.50;;;;;;;;;;5060252;28;20178;-63
2022/06/01 12:41:15;;;;;;;4.40;1.30;;;;;;;;;;5059672;28;20040;-62
2022/06/01 12:43:46;;;;;;;2.45;1.35;;;;;;;;;;5062429;28;20036;-62
2022/06/01 12:46:21;;;;;;;2.65;1.48;;;;;;;;;;5065053;28;20145;-62
2022/06/01 12:48:47;;;;;;;2.17;1.40;;;;;;;;;;5065818;28;20508;-62
2022/06/01 12:51:14;;;;;;;3.50;1.20;;;;;;;;;;5062297;28;20059;-62
2022/06/01 12:53:43;;;;;;;4.20;1.10;;;;;;;;;;5055452;28;20049;-62
2022/06/01 12:56:16;;;;;;;8.40;1.23;;;;;;;;;;5060787;28;20474;-62
2022/06/01 12:58:45;;;;;;;3.63;1.20;;;;;;;;;;5061138;28;20048;-62
2022/06/01 13:01:12;;;;;;;2.65;1.33;;;;;;;;;;5065416;28;20123;-62
2022/06/01 13:03:43;;;;;;;3.35;0.95;;;;;;;;;;5061591;28;20052;-61
2022/06/01 13:06:11;;;;;;;3.67;1.08;;;;;;;;;;5056400;28;20131;-62
2022/06/01 13:08:39;;;;;;;3.30;1.08;;;;;;;;;;5058190;28;20076;-62
2022/06/01 13:11:13;;;;;;;2.23;1.17;;;;;;;;;;5058993;28;20055;-62
2022/06/01 13:13:41;;;;;;;1.45;0.90;;;;;;;;;;5060959;28;20089;-62
2022/06/01 13:16:08;;;;;;;1.48;1.00;;;;;;;;;;5059044;28;20197;-63
2022/06/01 13:18:38;;;;;;;1.33;1.08;;;;;;;;;;5057229;28;20040;-62
2022/06/01 13:21:07;;;;;;;2.17;0.90;;;;;;;;;;5051595;28;20052;-62
2022/06/01 13:23:42;;;;;;;1.30;0.70;;;;;;;;;;5054867;28;20056;-62
2022/06/01 13:26:10;;;;;;;2.20;0.70;;;;;;;;;;5062826;28;20047;-62
2022/06/01 13:28:36;;;;;;;0.85;0.60;;;;;;;;;;5064472;28;20875;-62
2022/06/01 13:31:03;;;;;;;2.03;0.70;;;;;;;;;;5063322;28;20506;-61
2022/06/01 13:33:32;;;;;;;3.13;0.63;;;;;;;;;;5064292;28;20079;-62
2022/06/01 13:36:00;;;;;;;1.35;0.60;;;;;;;;;;5063701;28;20044;-62
2022/06/01 13:38:28;;;;;;;;;;;;;;;;;;5059947;28;20053;-62
2022/06/01 13:40:57;;;;;;;1.48;0.77;;;;;;;;;;5058788;28;19963;-62
2022/06/01 13:43:23;;;;;;;1.85;0.70;;;;;;;;;;5053357;28;20550;-62
2022/06/01 13:45:53;;;;;;;1.52;0.60;;;;;;;;;;5060924;28;20120;-62
2022/06/01 13:48:24;;;;;;;0.77;0.50;;;;;;;;;;5061108;28;20479;-62
2022/06/01 13:50:55;;;;;;;0.80;0.47;;;;;;;;;;5064533;28;20036;-62
2022/06/01 13:53:29;;;;;;;3.40;0.65;;;;;;;;;;5058518;28;20101;-62
2022/06/01 13:56:02;;;;;;;1.45;0.50;;;;;;;;;;5063889;28;20076;-62
2022/06/01 13:58:34;;;;;;;1.48;0.70;;;;;;;;;;5063194;28;20049;-62
2022/06/01 14:01:10;;;;;;;0.50;0.40;;;;;;;;;;5060546;28;20055;-62
2022/06/01 14:03:40;;;;;;;0.85;0.40;;;;;;;;;;5063338;28;20729;-62
2022/06/01 14:06:08;;;;;;;1.85;0.40;;;;;;;;;;5062359;28;20044;-62
2022/06/01 14:08:37;;;;;;;4.03;1.02;;;;;;;;;;5062093;28;20050;-62
2022/06/01 14:11:06;;;;;;;0.20;0.20;;;;;;;;;;5059943;28;20071;-62
2022/06/01 14:13:38;;;;;;;1.13;0.30;;;;;;;;;;5063632;28;20044;-63
2022/06/01 14:16:07;;;;;;;0.43;0.20;;;;;;;;;;5061523;28;20033;-62
2022/06/01 14:18:34;;;;;;;0.35;0.30;;;;;;;;;;5064436;28;20036;-62
2022/06/01 14:21:02;;;;;;;0.50;0.30;;;;;;;;;;5064910;28;20044;-62
2022/06/01 14:23:28;;;;;;;2.83;0.50;;;;;;;;;;5064943;28;20037;-62
2022/06/01 14:28:40;;;;;;;0.98;0.30;;;;;;;;;;5063536;28;20045;-62
2022/06/01 14:31:09;;;;;;;4.82;0.60;;;;;;;;;;5064239;28;20068;-62
2022/06/01 14:33:35;;;;;;;1.67;0.70;;;;;;;;;;5065110;28;20056;-62
2022/06/01 14:36:01;;;;;;;0.95;0.50;;;;;;;;;;5065220;28;20485;-62
2022/06/01 14:38:28;;;;;;;0.75;0.60;;;;;;;;;;5064212;28;20052;-62
2022/06/01 14:40:55;;;;;;;0.90;0.70;;;;;;;;;;5064376;28;20059;-62
2022/06/01 14:43:25;;;;;;;3.25;0.80;;;;;;;;;;5062676;28;20534;-62
2022/06/01 14:45:51;;;;;;;2.22;0.98;;;;;;;;;;5062793;28;20046;-62
2022/06/01 14:48:18;;;;;;;1.58;0.80;;;;;;;;;;5064384;28;20055;-63
2022/06/01 14:50:44;;;;;;;2.03;1.40;;;;;;;;;;5064787;28;20182;-62
2022/06/01 14:53:20;;;;;;;2.40;1.08;;;;;;;;;;5063748;28;20504;-62
2022/06/01 14:55:46;;;;;;;3.00;1.10;;;;;;;;;;5064884;28;20032;-62
2022/06/01 14:58:13;;;;;;;1.50;0.95;;;;;;;;;;5061538;28;20039;-62
2022/06/01 15:00:39;;;;;;;2.08;1.60;;;;;;;;;;5063243;28;20060;-62
2022/06/01 15:03:06;;;;;;;3.08;1.92;;;;;;;;;;5064092;28;20045;-62
2022/06/01 15:05:32;;;;;;;2.75;1.60;;;;;;;;;;5063995;28;20091;-62
2022/06/01 15:07:58;;;;;;;3.25;1.48;;;;;;;;;;5059428;28;20064;-62
2022/06/01 15:10:24;;;;;;;3.22;2.10;;;;;;;;;;5063372;28;20589;-62